CheckWX is a tool to help pilots better visualize weather data.  It is not intended as a substitute for an official pre-flight weather briefing.

05:48:41 UTC

EHPG METAR
P11-b Sea
P11-b Sea, The Netherlands
Current

24 mins ago

EHPG 200525Z AUTO 22020KT 9999 NSC 08/06 Q1018 W///H///
Observed
Feb-20 @ 05:25 UTC
Wind
  • 220° at 20 KTS
Visibility
10,000+ meters
Flight Rules
VFR
Cloud Levels
  • Clear skies
Temperature
C / 46°F
Dewpoint
C / 43°F
Humidity
87%
Altimeter
30.06" Hg
Pressure
1017.92 hPa
Previous

54 mins ago

EHPG 200455Z AUTO 22019KT 9999 NSC 08/05 Q1018 W///H///
Observed
Feb-20 @ 04:55 UTC
Wind
  • 220° at 19 KTS
Visibility
10,000+ meters
Flight Rules
VFR
Cloud Levels
  • Clear skies
Temperature
C / 46°F
Dewpoint
C / 41°F
Humidity
82%
Altimeter
30.06" Hg
Pressure
1017.92 hPa
Previous

1 hour ago

EHPG 200425Z AUTO 22021KT 9999 NSC 08/05 Q1018 W///H///
Observed
Feb-20 @ 04:25 UTC
Wind
  • 220° at 21 KTS
Visibility
10,000+ meters
Flight Rules
VFR
Cloud Levels
  • Clear skies
Temperature
C / 46°F
Dewpoint
C / 41°F
Humidity
82%
Altimeter
30.06" Hg
Pressure
1017.92 hPa